sensor_id;sensor_type;location;lat;lon;timestamp;temperature;humidity
19862;DHT22;10093;48.148;8.542;2023-03-13T00:01:15;7.80;99.90
19862;DHT22;10093;48.148;8.542;2023-03-13T00:03:41;7.70;99.90
19862;DHT22;10093;48.148;8.542;2023-03-13T00:06:07;7.80;99.90
19862;DHT22;10093;48.148;8.542;2023-03-13T00:08:32;7.90;99.90
19862;DHT22;10093;48.148;8.542;2023-03-13T00:11:02;7.90;99.90
19862;DHT22;10093;48.148;8.542;2023-03-13T00:13:28;8.10;99.90
19862;DHT22;10093;48.148;8.542;2023-03-13T00:16:01;8.00;99.90
19862;DHT22;10093;48.148;8.542;2023-03-13T00:18:27;7.90;99.90
19862;DHT22;10093;48.148;8.542;2023-03-13T00:21:00;7.80;99.90
19862;DHT22;10093;48.148;8.542;2023-03-13T00:23:27;7.70;99.90
19862;DHT22;10093;48.148;8.542;2023-03-13T00:26:01;7.80;99.90
19862;DHT22;10093;48.148;8.542;2023-03-13T00:28:28;7.70;99.90
19862;DHT22;10093;48.148;8.542;2023-03-13T00:33:27;7.60;99.90
19862;DHT22;10093;48.148;8.542;2023-03-13T00:35:57;7.60;99.90
19862;DHT22;10093;48.148;8.542;2023-03-13T00:38:23;7.70;99.90
19862;DHT22;10093;48.148;8.542;2023-03-13T00:40:49;7.70;99.90
19862;DHT22;10093;48.148;8.542;2023-03-13T00:43:14;7.90;99.90
19862;DHT22;10093;48.148;8.542;2023-03-13T00:45:40;8.20;99.90
19862;DHT22;10093;48.148;8.542;2023-03-13T00:48:05;8.00;99.90
19862;DHT22;10093;48.148;8.542;2023-03-13T00:50:31;7.80;99.90
19862;DHT22;10093;48.148;8.542;2023-03-13T00:52:56;7.60;99.90
19862;DHT22;10093;48.148;8.542;2023-03-13T00:55:22;7.70;99.90
19862;DHT22;10093;48.148;8.542;2023-03-13T00:57:48;7.80;99.90
19862;DHT22;10093;48.148;8.542;2023-03-13T01:00:13;7.70;99.90
19862;DHT22;10093;48.148;8.542;2023-03-13T01:02:41;7.50;99.90
19862;DHT22;10093;48.148;8.542;2023-03-13T01:05:08;7.60;99.90
19862;DHT22;10093;48.148;8.542;2023-03-13T01:07:33;7.60;99.90
19862;DHT22;10093;48.148;8.542;2023-03-13T01:09:59;7.60;99.90
19862;DHT22;10093;48.148;8.542;2023-03-13T01:12:25;7.50;99.90
19862;DHT22;10093;48.148;8.542;2023-03-13T01:14:50;7.60;99.90
19862;DHT22;10093;48.148;8.542;2023-03-13T01:17:16;7.50;99.90
19862;DHT22;10093;48.148;8.542;2023-03-13T01:19:41;7.50;99.90
19862;DHT22;10093;48.148;8.542;2023-03-13T01:22:07;7.50;99.90
19862;DHT22;10093;48.148;8.542;2023-03-13T01:24:35;7.50;99.90
19862;DHT22;10093;48.148;8.542;2023-03-13T01:27:01;7.50;99.90
19862;DHT22;10093;48.148;8.542;2023-03-13T01:29:26;7.50;99.90
19862;DHT22;10093;48.148;8.542;2023-03-13T01:31:52;7.50;99.90
19862;DHT22;10093;48.148;8.542;2023-03-13T01:34:17;7.50;99.90
19862;DHT22;10093;48.148;8.542;2023-03-13T01:36:43;7.40;99.90
19862;DHT22;10093;48.148;8.542;2023-03-13T01:39:09;7.40;99.90
19862;DHT22;10093;48.148;8.542;2023-03-13T01:41:36;7.40;99.90
19862;DHT22;10093;48.148;8.542;2023-03-13T01:44:02;7.40;99.90
19862;DHT22;10093;48.148;8.542;2023-03-13T01:46:28;7.50;99.90
19862;DHT22;10093;48.148;8.542;2023-03-13T01:49:08;7.60;99.90
19862;DHT22;10093;48.148;8.542;2023-03-13T01:51:47;7.60;99.90
19862;DHT22;10093;48.148;8.542;2023-03-13T01:54:28;7.80;99.90
19862;DHT22;10093;48.148;8.542;2023-03-13T01:57:10;7.80;99.90
19862;DHT22;10093;48.148;8.542;2023-03-13T01:59:55;8.00;99.90
19862;DHT22;10093;48.148;8.542;2023-03-13T02:02:23;8.40;99.90
19862;DHT22;10093;48.148;8.542;2023-03-13T02:04:53;8.90;99.90
19862;DHT22;10093;48.148;8.542;2023-03-13T02:07:28;9.30;99.90
19862;DHT22;10093;48.148;8.542;2023-03-13T02:09:55;9.60;99.90
19862;DHT22;10093;48.148;8.542;2023-03-13T02:12:31;9.70;99.90
19862;DHT22;10093;48.148;8.542;2023-03-13T02:14:59;9.80;99.90
19862;DHT22;10093;48.148;8.542;2023-03-13T02:17:27;9.90;99.90
19862;DHT22;10093;48.148;8.542;2023-03-13T02:19:53;9.80;99.90
19862;DHT22;10093;48.148;8.542;2023-03-13T02:28:01;9.90;99.90
19862;DHT22;10093;48.148;8.542;2023-03-13T02:30:27;9.90;99.90
19862;DHT22;10093;48.148;8.542;2023-03-13T02:32:54;9.90;99.90
19862;DHT22;10093;48.148;8.542;2023-03-13T02:35:21;9.80;99.90
19862;DHT22;10093;48.148;8.542;2023-03-13T02:37:52;9.90;99.90
19862;DHT22;10093;48.148;8.542;2023-03-13T02:40:23;9.90;99.90
19862;DHT22;10093;48.148;8.542;2023-03-13T02:42:51;9.90;99.90
19862;DHT22;10093;48.148;8.542;2023-03-13T02:45:17;9.90;99.90
19862;DHT22;10093;48.148;8.542;2023-03-13T02:47:43;9.80;99.90
19862;DHT22;10093;48.148;8.542;2023-03-13T02:50:10;9.80;99.90
19862;DHT22;10093;48.148;8.542;2023-03-13T02:52:39;9.80;99.90
19862;DHT22;10093;48.148;8.542;2023-03-13T02:55:21;9.80;99.90
19862;DHT22;10093;48.148;8.542;2023-03-13T02:57:48;9.80;99.90
19862;DHT22;10093;48.148;8.542;2023-03-13T03:00:15;9.80;99.90
19862;DHT22;10093;48.148;8.542;2023-03-13T03:02:42;9.70;99.90
19862;DHT22;10093;48.148;8.542;2023-03-13T03:05:08;9.40;99.90
19862;DHT22;10093;48.148;8.542;2023-03-13T03:07:34;9.00;99.90
19862;DHT22;10093;48.148;8.542;2023-03-13T03:10:00;8.60;99.90
19862;DHT22;10093;48.148;8.542;2023-03-13T03:12:25;8.40;99.90
19862;DHT22;10093;48.148;8.542;2023-03-13T03:14:51;8.20;99.90
19862;DHT22;10093;48.148;8.542;2023-03-13T03:17:17;8.00;99.90
19862;DHT22;10093;48.148;8.542;2023-03-13T03:19:42;7.80;99.90
19862;DHT22;10093;48.148;8.542;2023-03-13T03:22:08;7.80;99.90
19862;DHT22;10093;48.148;8.542;2023-03-13T03:24:34;7.80;99.90
19862;DHT22;10093;48.148;8.542;2023-03-13T03:26:59;7.90;99.90
19862;DHT22;10093;48.148;8.542;2023-03-13T03:29:25;7.90;99.90
19862;DHT22;10093;48.148;8.542;2023-03-13T03:31:52;7.90;99.90
19862;DHT22;10093;48.148;8.542;2023-03-13T03:34:17;8.00;99.90
19862;DHT22;10093;48.148;8.542;2023-03-13T03:36:43;8.00;99.90
19862;DHT22;10093;48.148;8.542;2023-03-13T03:39:09;8.10;99.90
19862;DHT22;10093;48.148;8.542;2023-03-13T03:41:34;8.40;99.90
19862;DHT22;10093;48.148;8.542;2023-03-13T03:44:02;8.60;99.90
19862;DHT22;10093;48.148;8.542;2023-03-13T03:46:28;8.50;99.90
19862;DHT22;10093;48.148;8.542;2023-03-13T03:48:53;8.50;99.90
19862;DHT22;10093;48.148;8.542;2023-03-13T03:51:20;8.50;99.90
19862;DHT22;10093;48.148;8.542;2023-03-13T03:53:45;8.60;99.90
19862;DHT22;10093;48.148;8.542;2023-03-13T03:56:11;8.70;99.90
19862;DHT22;10093;48.148;8.542;2023-03-13T03:58:37;8.80;99.90
19862;DHT22;10093;48.148;8.542;2023-03-13T04:01:02;9.20;99.90
19862;DHT22;10093;48.148;8.542;2023-03-13T04:03:28;9.40;99.90
19862;DHT22;10093;48.148;8.542;2023-03-13T04:05:54;9.50;99.90
19862;DHT22;10093;48.148;8.542;2023-03-13T04:08:21;9.50;99.90
19862;DHT22;10093;48.148;8.542;2023-03-13T04:10:46;9.50;99.90
19862;DHT22;10093;48.148;8.542;2023-03-13T04:13:12;9.60;99.90
19862;DHT22;10093;48.148;8.542;2023-03-13T04:15:39;9.60;99.90
19862;DHT22;10093;48.148;8.542;2023-03-13T04:18:05;9.60;99.90
19862;DHT22;10093;48.148;8.542;2023-03-13T04:20:31;9.60;99.90
19862;DHT22;10093;48.148;8.542;2023-03-13T04:22:56;9.60;99.90
19862;DHT22;10093;48.148;8.542;2023-03-13T04:25:22;9.60;99.90
19862;DHT22;10093;48.148;8.542;2023-03-13T04:27:47;9.60;99.90
19862;DHT22;10093;48.148;8.542;2023-03-13T04:30:13;9.50;99.90
19862;DHT22;10093;48.148;8.542;2023-03-13T04:32:39;9.40;99.90
19862;DHT22;10093;48.148;8.542;2023-03-13T04:35:05;9.40;99.90
19862;DHT22;10093;48.148;8.542;2023-03-13T04:37:30;9.30;99.90
19862;DHT22;10093;48.148;8.542;2023-03-13T04:39:56;9.30;99.90
19862;DHT22;10093;48.148;8.542;2023-03-13T04:42:22;9.20;99.90
19862;DHT22;10093;48.148;8.542;2023-03-13T04:44:47;9.20;99.90
19862;DHT22;10093;48.148;8.542;2023-03-13T04:47:13;9.10;99.90
19862;DHT22;10093;48.148;8.542;2023-03-13T04:49:38;9.00;99.90
19862;DHT22;10093;48.148;8.542;2023-03-13T04:52:04;9.00;99.90
19862;DHT22;10093;48.148;8.542;2023-03-13T04:54:30;9.00;99.90
19862;DHT22;10093;48.148;8.542;2023-03-13T04:56:55;9.00;99.90
19862;DHT22;10093;48.148;8.542;2023-03-13T04:59:21;9.00;99.90
19862;DHT22;10093;48.148;8.542;2023-03-13T05:01:47;9.00;99.90
19862;DHT22;10093;48.148;8.542;2023-03-13T05:04:12;9.00;99.90
19862;DHT22;10093;48.148;8.542;2023-03-13T05:06:38;9.00;99.90
19862;DHT22;10093;48.148;8.542;2023-03-13T05:09:04;9.10;99.90
19862;DHT22;10093;48.148;8.542;2023-03-13T05:11:30;9.00;99.90
19862;DHT22;10093;48.148;8.542;2023-03-13T05:13:55;9.00;99.90
19862;DHT22;10093;48.148;8.542;2023-03-13T05:16:21;9.00;99.90
19862;DHT22;10093;48.148;8.542;2023-03-13T05:18:47;8.90;99.90
19862;DHT22;10093;48.148;8.542;2023-03-13T05:21:12;8.90;99.90
19862;DHT22;10093;48.148;8.542;2023-03-13T05:23:38;9.00;99.90
19862;DHT22;10093;48.148;8.542;2023-03-13T05:26:03;8.90;99.90
19862;DHT22;10093;48.148;8.542;2023-03-13T05:28:29;8.90;99.90
19862;DHT22;10093;48.148;8.542;2023-03-13T05:30:55;8.90;99.90
19862;DHT22;10093;48.148;8.542;2023-03-13T05:33:20;8.90;99.90
19862;DHT22;10093;48.148;8.542;2023-03-13T05:35:46;8.90;99.90
19862;DHT22;10093;48.148;8.542;2023-03-13T05:38:13;8.80;99.90
19862;DHT22;10093;48.148;8.542;2023-03-13T05:40:38;8.80;99.90
19862;DHT22;10093;48.148;8.542;2023-03-13T05:43:04;8.80;99.90
19862;DHT22;10093;48.148;8.542;2023-03-13T05:45:30;8.70;99.90
19862;DHT22;10093;48.148;8.542;2023-03-13T05:47:56;8.70;99.90
19862;DHT22;10093;48.148;8.542;2023-03-13T05:50:23;8.80;99.90
19862;DHT22;10093;48.148;8.542;2023-03-13T05:52:49;8.80;99.90
19862;DHT22;10093;48.148;8.542;2023-03-13T05:55:14;8.70;99.90
19862;DHT22;10093;48.148;8.542;2023-03-13T05:57:43;8.80;99.90
19862;DHT22;10093;48.148;8.542;2023-03-13T06:00:10;8.80;99.90
19862;DHT22;10093;48.148;8.542;2023-03-13T06:02:36;8.60;99.90
19862;DHT22;10093;48.148;8.542;2023-03-13T06:05:01;8.60;99.90
19862;DHT22;10093;48.148;8.542;2023-03-13T06:07:27;8.70;99.90
19862;DHT22;10093;48.148;8.542;2023-03-13T06:09:53;8.80;99.90
19862;DHT22;10093;48.148;8.542;2023-03-13T06:12:18;8.80;99.90
19862;DHT22;10093;48.148;8.542;2023-03-13T06:14:44;8.80;99.90
19862;DHT22;10093;48.148;8.542;2023-03-13T06:17:10;8.80;99.90
19862;DHT22;10093;48.148;8.542;2023-03-13T06:19:35;9.00;99.90
19862;DHT22;10093;48.148;8.542;2023-03-13T06:22:01;9.10;99.90
19862;DHT22;10093;48.148;8.542;2023-03-13T06:24:26;9.20;99.90
19862;DHT22;10093;48.148;8.542;2023-03-13T06:26:52;9.30;99.90
19862;DHT22;10093;48.148;8.542;2023-03-13T06:29:18;9.20;99.90
19862;DHT22;10093;48.148;8.542;2023-03-13T06:31:43;9.30;99.90
19862;DHT22;10093;48.148;8.542;2023-03-13T06:34:12;9.30;99.90
19862;DHT22;10093;48.148;8.542;2023-03-13T06:36:38;9.40;99.90
19862;DHT22;10093;48.148;8.542;2023-03-13T06:39:04;9.30;99.90
19862;DHT22;10093;48.148;8.542;2023-03-13T06:41:30;9.40;99.90
19862;DHT22;10093;48.148;8.542;2023-03-13T06:43:55;9.30;99.90
19862;DHT22;10093;48.148;8.542;2023-03-13T06:46:22;9.30;99.90
19862;DHT22;10093;48.148;8.542;2023-03-13T06:48:49;9.30;99.90
19862;DHT22;10093;48.148;8.542;2023-03-13T06:51:17;9.40;99.90
19862;DHT22;10093;48.148;8.542;2023-03-13T06:53:43;9.40;99.90
19862;DHT22;10093;48.148;8.542;2023-03-13T06:56:09;9.50;99.90
19862;DHT22;10093;48.148;8.542;2023-03-13T06:58:35;9.50;99.90
19862;DHT22;10093;48.148;8.542;2023-03-13T07:01:08;9.60;99.90
19862;DHT22;10093;48.148;8.542;2023-03-13T07:03:34;9.70;99.90
19862;DHT22;10093;48.148;8.542;2023-03-13T07:06:00;10.00;99.90
19862;DHT22;10093;48.148;8.542;2023-03-13T07:08:27;10.10;99.90
19862;DHT22;10093;48.148;8.542;2023-03-13T07:11:01;10.30;99.90
19862;DHT22;10093;48.148;8.542;2023-03-13T07:13:27;10.40;99.90
19862;DHT22;10093;48.148;8.542;2023-03-13T07:15:53;10.40;99.90
19862;DHT22;10093;48.148;8.542;2023-03-13T07:18:20;10.40;99.90
19862;DHT22;10093;48.148;8.542;2023-03-13T07:20:54;10.60;99.90
19862;DHT22;10093;48.148;8.542;2023-03-13T07:23:20;10.70;99.90
19862;DHT22;10093;48.148;8.542;2023-03-13T07:25:57;10.80;99.90
19862;DHT22;10093;48.148;8.542;2023-03-13T07:28:24;10.80;99.90
19862;DHT22;10093;48.148;8.542;2023-03-13T07:30:50;10.80;99.90
19862;DHT22;10093;48.148;8.542;2023-03-13T07:33:16;10.80;99.90
19862;DHT22;10093;48.148;8.542;2023-03-13T07:35:49;10.80;99.90
19862;DHT22;10093;48.148;8.542;2023-03-13T07:38:15;10.80;99.90
19862;DHT22;10093;48.148;8.542;2023-03-13T07:40:47;10.80;99.90
19862;DHT22;10093;48.148;8.542;2023-03-13T07:43:13;10.90;99.90
19862;DHT22;10093;48.148;8.542;2023-03-13T07:45:55;10.90;99.90
19862;DHT22;10093;48.148;8.542;2023-03-13T07:48:22;10.90;99.90
19862;DHT22;10093;48.148;8.542;2023-03-13T07:50:48;11.00;99.90
19862;DHT22;10093;48.148;8.542;2023-03-13T07:53:14;11.00;99.90
19862;DHT22;10093;48.148;8.542;2023-03-13T07:55:51;11.10;99.90
19862;DHT22;10093;48.148;8.542;2023-03-13T07:58:17;11.20;99.90
19862;DHT22;10093;48.148;8.542;2023-03-13T08:00:43;11.20;99.90
19862;DHT22;10093;48.148;8.542;2023-03-13T08:03:08;11.30;99.90
19862;DHT22;10093;48.148;8.542;2023-03-13T08:05:34;11.30;99.90
19862;DHT22;10093;48.148;8.542;2023-03-13T08:08:00;11.40;99.90
19862;DHT22;10093;48.148;8.542;2023-03-13T08:10:26;11.50;99.90
19862;DHT22;10093;48.148;8.542;2023-03-13T08:12:51;11.50;99.90
19862;DHT22;10093;48.148;8.542;2023-03-13T08:15:17;11.50;99.90
19862;DHT22;10093;48.148;8.542;2023-03-13T08:17:47;11.50;99.90
19862;DHT22;10093;48.148;8.542;2023-03-13T08:20:13;11.60;99.90
19862;DHT22;10093;48.148;8.542;2023-03-13T08:22:39;12.10;99.90
19862;DHT22;10093;48.148;8.542;2023-03-13T08:25:05;12.60;99.90
19862;DHT22;10093;48.148;8.542;2023-03-13T08:27:30;12.80;99.90
19862;DHT22;10093;48.148;8.542;2023-03-13T08:29:56;12.90;99.90
19862;DHT22;10093;48.148;8.542;2023-03-13T08:32:21;12.90;99.90
19862;DHT22;10093;48.148;8.542;2023-03-13T08:34:47;13.00;99.90
19862;DHT22;10093;48.148;8.542;2023-03-13T08:37:15;13.00;99.90
19862;DHT22;10093;48.148;8.542;2023-03-13T08:39:41;13.30;99.90
19862;DHT22;10093;48.148;8.542;2023-03-13T08:42:11;13.40;99.90
19862;DHT22;10093;48.148;8.542;2023-03-13T08:44:38;13.90;99.90
19862;DHT22;10093;48.148;8.542;2023-03-13T08:47:05;14.30;99.90
19862;DHT22;10093;48.148;8.542;2023-03-13T08:49:31;14.80;99.90
19862;DHT22;10093;48.148;8.542;2023-03-13T08:51:57;15.80;99.90
19862;DHT22;10093;48.148;8.542;2023-03-13T08:54:22;16.00;99.90
19862;DHT22;10093;48.148;8.542;2023-03-13T08:56:48;15.90;99.90
19862;DHT22;10093;48.148;8.542;2023-03-13T08:59:13;16.60;99.90
19862;DHT22;10093;48.148;8.542;2023-03-13T09:01:42;17.20;99.90
19862;DHT22;10093;48.148;8.542;2023-03-13T09:04:07;17.90;99.90
19862;DHT22;10093;48.148;8.542;2023-03-13T09:06:34;17.70;99.90
19862;DHT22;10093;48.148;8.542;2023-03-13T09:09:00;17.60;99.90
19862;DHT22;10093;48.148;8.542;2023-03-13T09:11:26;17.30;99.90
19862;DHT22;10093;48.148;8.542;2023-03-13T09:13:54;16.90;99.90
19862;DHT22;10093;48.148;8.542;2023-03-13T09:16:21;17.50;99.90
19862;DHT22;10093;48.148;8.542;2023-03-13T09:18:49;17.90;99.90
19862;DHT22;10093;48.148;8.542;2023-03-13T09:21:20;17.80;99.90
19862;DHT22;10093;48.148;8.542;2023-03-13T09:23:46;17.90;99.90
19862;DHT22;10093;48.148;8.542;2023-03-13T09:26:13;17.40;99.90
19862;DHT22;10093;48.148;8.542;2023-03-13T09:28:39;18.00;99.90
19862;DHT22;10093;48.148;8.542;2023-03-13T09:31:12;17.50;99.90
19862;DHT22;10093;48.148;8.542;2023-03-13T09:33:39;17.70;99.90
19862;DHT22;10093;48.148;8.542;2023-03-13T09:36:06;17.30;99.90
19862;DHT22;10093;48.148;8.542;2023-03-13T09:38:31;16.80;99.90
19862;DHT22;10093;48.148;8.542;2023-03-13T09:41:04;16.30;99.90
19862;DHT22;10093;48.148;8.542;2023-03-13T09:43:59;16.10;99.90
19862;DHT22;10093;48.148;8.542;2023-03-13T09:46:30;15.50;99.90
19862;DHT22;10093;48.148;8.542;2023-03-13T09:49:00;15.40;99.90
19862;DHT22;10093;48.148;8.542;2023-03-13T09:51:34;15.60;99.90
19862;DHT22;10093;48.148;8.542;2023-03-13T09:54:02;15.80;99.90
19862;DHT22;10093;48.148;8.542;2023-03-13T09:56:38;16.10;99.90
19862;DHT22;10093;48.148;8.542;2023-03-13T10:01:57;16.90;99.90
19862;DHT22;10093;48.148;8.542;2023-03-13T10:04:44;17.50;99.90
19862;DHT22;10093;48.148;8.542;2023-03-13T10:07:12;17.50;99.90
19862;DHT22;10093;48.148;8.542;2023-03-13T10:09:38;18.70;99.90
19862;DHT22;10093;48.148;8.542;2023-03-13T10:12:18;19.70;99.90
19862;DHT22;10093;48.148;8.542;2023-03-13T10:15:21;20.50;99.90
19862;DHT22;10093;48.148;8.542;2023-03-13T10:17:50;22.20;99.90
19862;DHT22;10093;48.148;8.542;2023-03-13T10:20:26;21.80;99.90
19862;DHT22;10093;48.148;8.542;2023-03-13T10:23:19;20.70;99.90
19862;DHT22;10093;48.148;8.542;2023-03-13T10:25:46;19.00;99.90
19862;DHT22;10093;48.148;8.542;2023-03-13T10:28:14;18.70;99.90
19862;DHT22;10093;48.148;8.542;2023-03-13T10:30:46;19.20;99.90
19862;DHT22;10093;48.148;8.542;2023-03-13T10:33:26;18.70;99.90
19862;DHT22;10093;48.148;8.542;2023-03-13T10:36:10;18.90;99.90
19862;DHT22;10093;48.148;8.542;2023-03-13T10:38:51;19.90;99.90
19862;DHT22;10093;48.148;8.542;2023-03-13T10:41:32;20.40;99.90
19862;DHT22;10093;48.148;8.542;2023-03-13T10:44:06;21.10;99.90
19862;DHT22;10093;48.148;8.542;2023-03-13T10:46:41;21.30;99.90
19862;DHT22;10093;48.148;8.542;2023-03-13T10:49:17;19.60;99.90
19862;DHT22;10093;48.148;8.542;2023-03-13T10:51:50;20.30;99.90
19862;DHT22;10093;48.148;8.542;2023-03-13T10:56:49;19.90;99.90
19862;DHT22;10093;48.148;8.542;2023-03-13T10:59:25;19.60;99.90
19862;DHT22;10093;48.148;8.542;2023-03-13T11:01:53;20.10;99.90
19862;DHT22;10093;48.148;8.542;2023-03-13T11:04:30;20.60;99.90
19862;DHT22;10093;48.148;8.542;2023-03-13T11:07:16;20.30;99.90
19862;DHT22;10093;48.148;8.542;2023-03-13T11:10:00;20.70;99.90
19862;DHT22;10093;48.148;8.542;2023-03-13T11:12:27;20.20;99.90
19862;DHT22;10093;48.148;8.542;2023-03-13T11:14:57;21.20;99.90
19862;DHT22;10093;48.148;8.542;2023-03-13T11:17:35;21.30;99.90
19862;DHT22;10093;48.148;8.542;2023-03-13T11:22:37;22.00;99.90
19862;DHT22;10093;48.148;8.542;2023-03-13T11:25:20;22.70;99.90
19862;DHT22;10093;48.148;8.542;2023-03-13T11:27:57;22.60;99.90
19862;DHT22;10093;48.148;8.542;2023-03-13T11:30:56;22.50;99.90
19862;DHT22;10093;48.148;8.542;2023-03-13T11:36:21;21.60;99.90
19862;DHT22;10093;48.148;8.542;2023-03-13T11:38:59;22.10;99.90
19862;DHT22;10093;48.148;8.542;2023-03-13T11:41:32;21.80;99.90
19862;DHT22;10093;48.148;8.542;2023-03-13T11:44:11;22.00;99.90
19862;DHT22;10093;48.148;8.542;2023-03-13T11:46:48;22.20;99.90
19862;DHT22;10093;48.148;8.542;2023-03-13T11:55:29;21.70;99.90
19862;DHT22;10093;48.148;8.542;2023-03-13T12:00:40;22.10;99.90
19862;DHT22;10093;48.148;8.542;2023-03-13T12:05:48;22.90;99.90
19862;DHT22;10093;48.148;8.542;2023-03-13T12:08:27;22.50;99.90
19862;DHT22;10093;48.148;8.542;2023-03-13T12:16:24;22.20;99.90
19862;DHT22;10093;48.148;8.542;2023-03-13T12:18:51;22.50;99.90
19862;DHT22;10093;48.148;8.542;2023-03-13T12:24:34;23.90;99.90
19862;DHT22;10093;48.148;8.542;2023-03-13T12:27:17;23.30;99.90
19862;DHT22;10093;48.148;8.542;2023-03-13T12:29:54;23.20;99.90
19862;DHT22;10093;48.148;8.542;2023-03-13T12:35:25;19.90;99.90
19862;DHT22;10093;48.148;8.542;2023-03-13T12:37:54;19.60;99.90
19862;DHT22;10093;48.148;8.542;2023-03-13T12:40:46;19.90;99.90
19862;DHT22;10093;48.148;8.542;2023-03-13T12:43:43;20.80;99.90
19862;DHT22;10093;48.148;8.542;2023-03-13T12:46:35;21.00;99.90
19862;DHT22;10093;48.148;8.542;2023-03-13T12:57:45;23.00;99.90
19862;DHT22;10093;48.148;8.542;2023-03-13T13:00:22;22.10;99.90
19862;DHT22;10093;48.148;8.542;2023-03-13T13:06:07;21.50;99.90
19862;DHT22;10093;48.148;8.542;2023-03-13T13:09:28;21.50;99.90
19862;DHT22;10093;48.148;8.542;2023-03-13T13:11:41;21.30;99.90
19862;DHT22;10093;48.148;8.542;2023-03-13T13:16:47;22.10;99.90
19862;DHT22;10093;48.148;8.542;2023-03-13T13:32:57;20.00;99.90
19862;DHT22;10093;48.148;8.542;2023-03-13T13:35:40;19.80;99.90
19862;DHT22;10093;48.148;8.542;2023-03-13T13:43:43;19.50;99.90
19862;DHT22;10093;48.148;8.542;2023-03-13T13:46:25;19.20;99.90
19862;DHT22;10093;48.148;8.542;2023-03-13T13:56:59;20.10;99.90
19862;DHT22;10093;48.148;8.542;2023-03-13T13:59:41;20.10;99.90
19862;DHT22;10093;48.148;8.542;2023-03-13T14:04:50;19.70;99.90
19862;DHT22;10093;48.148;8.542;2023-03-13T14:07:27;19.50;99.90
19862;DHT22;10093;48.148;8.542;2023-03-13T14:12:36;19.00;99.90
19862;DHT22;10093;48.148;8.542;2023-03-13T14:15:22;18.80;99.90
19862;DHT22;10093;48.148;8.542;2023-03-13T14:17:49;18.90;99.90
19862;DHT22;10093;48.148;8.542;2023-03-13T14:20:38;18.60;99.90
19862;DHT22;10093;48.148;8.542;2023-03-13T14:23:06;18.40;99.90
19862;DHT22;10093;48.148;8.542;2023-03-13T14:25:46;18.30;99.90
19862;DHT22;10093;48.148;8.542;2023-03-13T14:28:20;18.10;99.90
19862;DHT22;10093;48.148;8.542;2023-03-13T14:30:47;18.00;99.90
19862;DHT22;10093;48.148;8.542;2023-03-13T14:33:14;18.00;99.90
19862;DHT22;10093;48.148;8.542;2023-03-13T14:35:40;18.00;99.90
19862;DHT22;10093;48.148;8.542;2023-03-13T14:38:06;18.30;99.90
19862;DHT22;10093;48.148;8.542;2023-03-13T14:40:36;18.50;99.90
19862;DHT22;10093;48.148;8.542;2023-03-13T14:43:02;18.60;99.90
19862;DHT22;10093;48.148;8.542;2023-03-13T14:45:35;18.80;99.90
19862;DHT22;10093;48.148;8.542;2023-03-13T14:51:26;18.80;99.90
19862;DHT22;10093;48.148;8.542;2023-03-13T14:56:18;20.70;99.90
19862;DHT22;10093;48.148;8.542;2023-03-13T14:58:46;21.00;99.90
19862;DHT22;10093;48.148;8.542;2023-03-13T15:01:26;20.80;99.90
19862;DHT22;10093;48.148;8.542;2023-03-13T15:03:55;20.10;99.90
19862;DHT22;10093;48.148;8.542;2023-03-13T15:06:22;19.70;99.90
19862;DHT22;10093;48.148;8.542;2023-03-13T15:11:59;18.90;99.90
19862;DHT22;10093;48.148;8.542;2023-03-13T15:14:45;18.80;99.90
19862;DHT22;10093;48.148;8.542;2023-03-13T15:17:15;18.30;99.90
19862;DHT22;10093;48.148;8.542;2023-03-13T15:19:41;18.00;99.90
19862;DHT22;10093;48.148;8.542;2023-03-13T15:22:15;18.30;99.90
19862;DHT22;10093;48.148;8.542;2023-03-13T15:24:42;18.10;99.90
19862;DHT22;10093;48.148;8.542;2023-03-13T15:27:16;18.30;99.90
19862;DHT22;10093;48.148;8.542;2023-03-13T15:29:42;18.20;99.90
19862;DHT22;10093;48.148;8.542;2023-03-13T15:32:33;18.40;99.90
19862;DHT22;10093;48.148;8.542;2023-03-13T15:35:00;18.60;99.90
19862;DHT22;10093;48.148;8.542;2023-03-13T15:37:27;18.40;99.90
19862;DHT22;10093;48.148;8.542;2023-03-13T15:39:54;18.10;99.90
19862;DHT22;10093;48.148;8.542;2023-03-13T15:42:21;18.30;99.90
19862;DHT22;10093;48.148;8.542;2023-03-13T15:44:46;18.30;99.90
19862;DHT22;10093;48.148;8.542;2023-03-13T15:47:16;18.50;99.90
19862;DHT22;10093;48.148;8.542;2023-03-13T15:49:43;18.60;99.90
19862;DHT22;10093;48.148;8.542;2023-03-13T15:52:14;19.10;99.90
19862;DHT22;10093;48.148;8.542;2023-03-13T15:54:43;19.50;99.90
19862;DHT22;10093;48.148;8.542;2023-03-13T15:57:15;19.50;99.90
19862;DHT22;10093;48.148;8.542;2023-03-13T15:59:41;19.50;99.90
19862;DHT22;10093;48.148;8.542;2023-03-13T16:02:16;19.30;99.90
19862;DHT22;10093;48.148;8.542;2023-03-13T16:04:43;19.30;99.90
19862;DHT22;10093;48.148;8.542;2023-03-13T16:07:10;19.30;99.90
19862;DHT22;10093;48.148;8.542;2023-03-13T16:09:36;19.30;99.90
19862;DHT22;10093;48.148;8.542;2023-03-13T16:12:02;19.20;99.90
19862;DHT22;10093;48.148;8.542;2023-03-13T16:14:28;19.00;99.90
19862;DHT22;10093;48.148;8.542;2023-03-13T16:16:53;18.70;99.90
19862;DHT22;10093;48.148;8.542;2023-03-13T16:19:19;18.70;99.90
19862;DHT22;10093;48.148;8.542;2023-03-13T16:21:44;18.60;99.90
19862;DHT22;10093;48.148;8.542;2023-03-13T16:24:13;18.50;99.90
19862;DHT22;10093;48.148;8.542;2023-03-13T16:26:39;18.00;99.90
19862;DHT22;10093;48.148;8.542;2023-03-13T16:29:04;17.70;99.90
19862;DHT22;10093;48.148;8.542;2023-03-13T16:31:31;17.50;99.90
19862;DHT22;10093;48.148;8.542;2023-03-13T16:33:58;17.40;99.90
19862;DHT22;10093;48.148;8.542;2023-03-13T16:36:29;17.40;99.90
19862;DHT22;10093;48.148;8.542;2023-03-13T16:38:59;17.20;99.90
19862;DHT22;10093;48.148;8.542;2023-03-13T16:41:26;17.00;99.90
19862;DHT22;10093;48.148;8.542;2023-03-13T16:43:52;17.00;99.90
19862;DHT22;10093;48.148;8.542;2023-03-13T16:46:20;16.70;99.90
19862;DHT22;10093;48.148;8.542;2023-03-13T16:48:47;16.50;99.90
19862;DHT22;10093;48.148;8.542;2023-03-13T16:51:20;16.40;99.90
19862;DHT22;10093;48.148;8.542;2023-03-13T16:53:47;16.20;99.90
19862;DHT22;10093;48.148;8.542;2023-03-13T16:56:34;16.00;99.90
19862;DHT22;10093;48.148;8.542;2023-03-13T16:59:03;15.80;99.90
19862;DHT22;10093;48.148;8.542;2023-03-13T17:01:29;15.60;99.90
19862;DHT22;10093;48.148;8.542;2023-03-13T17:03:56;15.50;99.90
19862;DHT22;10093;48.148;8.542;2023-03-13T17:06:26;15.30;99.90
19862;DHT22;10093;48.148;8.542;2023-03-13T17:08:52;15.20;99.90
19862;DHT22;10093;48.148;8.542;2023-03-13T17:11:19;15.10;99.90
19862;DHT22;10093;48.148;8.542;2023-03-13T17:13:50;15.00;99.90
19862;DHT22;10093;48.148;8.542;2023-03-13T17:16:29;14.90;99.90
19862;DHT22;10093;48.148;8.542;2023-03-13T17:18:56;15.00;99.90
19862;DHT22;10093;48.148;8.542;2023-03-13T17:21:25;14.80;99.90
19862;DHT22;10093;48.148;8.542;2023-03-13T17:23:51;14.70;99.90
19862;DHT22;10093;48.148;8.542;2023-03-13T17:26:26;14.70;99.90
19862;DHT22;10093;48.148;8.542;2023-03-13T17:28:54;14.90;99.90